createdAt,value
2018-09-23T00:01:20.612Z,18.80
2018-09-23T00:03:24.466Z,18.10
2018-09-23T00:05:28.144Z,18.30
2018-09-23T00:07:31.731Z,18.50
2018-09-23T00:09:35.268Z,18.50
2018-09-23T00:11:39.097Z,18.00
2018-09-23T00:13:42.631Z,18.10
2018-09-23T00:15:46.370Z,18.00
2018-09-23T00:17:49.992Z,18.00
2018-09-23T00:19:53.558Z,18.10
2018-09-23T00:21:57.127Z,17.70
2018-09-23T00:24:00.678Z,18.10
2018-09-23T00:26:04.439Z,18.10
2018-09-23T00:28:08.032Z,18.10
2018-09-23T00:30:11.559Z,18.00
2018-09-23T00:32:15.129Z,17.80
2018-09-23T00:34:18.736Z,17.40
2018-09-23T00:36:22.303Z,17.70
2018-09-23T00:38:26.041Z,17.70
2018-09-23T00:40:29.606Z,17.40
2018-09-23T00:42:33.184Z,17.60
2018-09-23T00:44:36.723Z,17.60
2018-09-23T00:46:40.493Z,17.60
2018-09-23T00:48:44.066Z,17.30
2018-09-23T00:50:47.620Z,17.40
2018-09-23T00:52:51.312Z,17.40
2018-09-23T00:54:54.834Z,17.30
2018-09-23T00:56:58.377Z,17.30
2018-09-23T00:59:02.081Z,17.40
2018-09-23T01:01:05.622Z,17.20
2018-09-23T01:03:09.170Z,17.30
2018-09-23T01:05:12.677Z,17.10
2018-09-23T01:07:16.263Z,17.30
2018-09-23T01:09:20.747Z,17.60
2018-09-23T01:11:24.424Z,18.00
2018-09-23T01:13:27.976Z,18.30
2018-09-23T01:15:31.563Z,18.50
2018-09-23T01:17:35.274Z,18.30
2018-09-23T01:19:38.916Z,17.90
2018-09-23T01:21:42.488Z,17.60
2018-09-23T01:23:46.080Z,18.00
2018-09-23T01:25:49.650Z,17.90
2018-09-23T01:27:53.175Z,17.60
2018-09-23T01:29:56.890Z,17.60
2018-09-23T01:32:00.449Z,17.70
2018-09-23T01:34:04.180Z,17.60
2018-09-23T01:36:08.048Z,17.50
2018-09-23T01:38:11.774Z,17.90
2018-09-23T01:40:15.455Z,17.90
2018-09-23T01:42:19.006Z,17.80
2018-09-23T01:44:22.562Z,17.90
2018-09-23T01:46:26.206Z,17.50
2018-09-23T01:48:29.742Z,17.10
2018-09-23T01:50:33.247Z,16.90
2018-09-23T01:52:36.813Z,17.00
2018-09-23T01:54:40.471Z,17.10
2018-09-23T01:56:44.015Z,17.00
2018-09-23T01:58:47.641Z,17.40
2018-09-23T02:00:51.193Z,17.80
2018-09-23T02:03:01.183Z,18.00
2018-09-23T02:05:04.873Z,17.70
2018-09-23T02:07:08.554Z,17.70
2018-09-23T02:09:12.124Z,18.00
2018-09-23T02:11:15.658Z,18.30
2018-09-23T02:13:19.254Z,18.50
2018-09-23T02:15:22.867Z,18.50
2018-09-23T02:17:26.452Z,18.20
2018-09-23T02:19:29.993Z,18.20
2018-09-23T02:21:33.569Z,18.10
2018-09-23T02:23:37.094Z,18.00
2018-09-23T02:25:40.645Z,18.00
2018-09-23T02:27:44.397Z,18.00
2018-09-23T02:29:47.938Z,18.10
2018-09-23T02:31:51.647Z,17.90
2018-09-23T02:33:55.166Z,17.90
2018-09-23T02:35:58.711Z,17.40
2018-09-23T02:38:02.224Z,17.60
2018-09-23T02:40:05.841Z,17.50
2018-09-23T02:42:09.460Z,17.80
2018-09-23T02:44:12.982Z,18.10
2018-09-23T02:46:16.638Z,18.30
2018-09-23T02:48:20.153Z,17.80
2018-09-23T02:50:23.663Z,17.60
2018-09-23T02:52:27.239Z,17.80
2018-09-23T02:54:30.771Z,18.10
2018-09-23T02:56:34.320Z,18.30
2018-09-23T02:58:37.882Z,18.20
2018-09-23T03:00:41.719Z,18.20
2018-09-23T03:02:45.251Z,18.20
2018-09-23T03:04:48.798Z,17.80
2018-09-23T03:06:52.312Z,16.70
2018-09-23T03:08:55.842Z,16.30
2018-09-23T03:10:59.396Z,16.90
2018-09-23T03:13:02.948Z,17.40
2018-09-23T03:15:06.799Z,17.50
2018-09-23T03:17:10.317Z,17.70
2018-09-23T03:19:14.015Z,18.10
2018-09-23T03:21:17.549Z,18.30
2018-09-23T03:23:21.086Z,18.30
2018-09-23T03:25:24.811Z,17.70
2018-09-23T03:27:28.367Z,17.90
2018-09-23T03:29:32.043Z,18.20
2018-09-23T03:31:35.576Z,18.30
2018-09-23T03:33:39.101Z,18.20
2018-09-23T03:35:42.628Z,18.40
2018-09-23T03:37:46.177Z,18.60
2018-09-23T03:39:49.876Z,18.70
2018-09-23T03:41:53.418Z,18.50
2018-09-23T03:43:57.056Z,18.40
2018-09-23T03:46:00.578Z,18.40
2018-09-23T03:48:04.198Z,18.60
2018-09-23T03:50:07.963Z,18.20
2018-09-23T03:52:11.523Z,18.00
2018-09-23T03:54:15.122Z,18.20
2018-09-23T03:56:18.679Z,18.30
2018-09-23T03:58:22.213Z,18.20
2018-09-23T04:00:25.825Z,17.70
2018-09-23T04:02:29.497Z,18.00
2018-09-23T04:04:33.025Z,18.10
2018-09-23T04:06:36.719Z,18.40
2018-09-23T04:08:40.591Z,18.20
2018-09-23T04:10:44.144Z,18.00
2018-09-23T04:12:47.651Z,17.90
2018-09-23T04:14:51.212Z,18.00
2018-09-23T04:16:54.790Z,17.80
2018-09-23T04:18:58.306Z,18.00
2018-09-23T04:21:01.953Z,17.50
2018-09-23T04:23:05.527Z,17.30
2018-09-23T04:25:09.164Z,17.60
2018-09-23T04:27:12.739Z,18.00
2018-09-23T04:29:16.586Z,18.00
2018-09-23T04:31:20.222Z,17.80
2018-09-23T04:33:23.762Z,17.70
2018-09-23T04:35:27.278Z,17.50
2018-09-23T04:37:30.851Z,17.70
2018-09-23T04:39:34.365Z,18.00
2018-09-23T04:41:37.876Z,18.20
2018-09-23T04:43:41.395Z,18.50
2018-09-23T04:45:44.990Z,18.60
2018-09-23T04:47:48.547Z,18.60
2018-09-23T04:49:52.120Z,18.60
2018-09-23T04:51:55.653Z,18.60
2018-09-23T04:53:59.150Z,18.60
2018-09-23T04:56:02.884Z,18.80
2018-09-23T04:58:06.422Z,18.80
2018-09-23T05:00:09.988Z,18.60
2018-09-23T05:02:13.628Z,18.70
2018-09-23T05:04:17.144Z,18.80
2018-09-23T05:06:20.908Z,18.90
2018-09-23T05:08:24.388Z,18.60
2018-09-23T05:10:28.112Z,18.60
2018-09-23T05:12:31.654Z,18.70
2018-09-23T05:14:35.387Z,18.60
2018-09-23T05:16:38.996Z,18.50
2018-09-23T05:18:42.543Z,18.40
2018-09-23T05:20:46.039Z,18.40
2018-09-23T05:22:49.656Z,18.20
2018-09-23T05:24:53.212Z,18.40
2018-09-23T05:26:56.711Z,18.40
2018-09-23T05:29:00.428Z,18.70
2018-09-23T05:31:04.111Z,18.80
2018-09-23T05:33:07.865Z,19.00
2018-09-23T05:35:11.510Z,18.80
2018-09-23T05:37:15.096Z,18.90
2018-09-23T05:39:18.767Z,19.00
2018-09-23T05:41:22.306Z,19.00
2018-09-23T05:43:25.888Z,18.80
2018-09-23T05:45:29.393Z,18.80
2018-09-23T05:47:32.883Z,18.50
2018-09-23T05:49:36.976Z,18.70
2018-09-23T05:51:40.495Z,18.90
2018-09-23T05:53:44.152Z,19.00
2018-09-23T05:55:47.828Z,18.90
2018-09-23T05:57:51.431Z,18.70
2018-09-23T05:59:54.994Z,18.60
2018-09-23T06:01:58.480Z,18.30
2018-09-23T06:04:01.987Z,18.40
2018-09-23T06:06:05.673Z,18.40
2018-09-23T06:08:09.197Z,18.80
2018-09-23T06:10:12.812Z,19.00
2018-09-23T06:12:16.319Z,19.20
2018-09-23T06:14:19.945Z,19.40
2018-09-23T06:16:23.467Z,19.20
2018-09-23T06:18:27.039Z,19.40
2018-09-23T06:20:30.735Z,19.30
2018-09-23T06:22:34.289Z,19.40
2018-09-23T06:24:37.756Z,18.90
2018-09-23T06:26:41.276Z,19.00
2018-09-23T06:28:44.938Z,19.30
2018-09-23T06:30:48.883Z,18.90
2018-09-23T06:32:52.381Z,19.20
2018-09-23T06:34:55.906Z,19.10
2018-09-23T06:36:59.498Z,19.30
2018-09-23T06:39:03.049Z,19.20
2018-09-23T06:41:06.673Z,18.80
2018-09-23T06:43:10.267Z,18.90
2018-09-23T06:45:13.927Z,18.90
2018-09-23T06:47:17.439Z,18.40
2018-09-23T06:49:21.045Z,18.40
2018-09-23T06:51:24.564Z,18.40
2018-09-23T06:53:28.112Z,18.30
2018-09-23T06:55:31.629Z,18.60
2018-09-23T06:57:35.224Z,18.80
2018-09-23T06:59:38.892Z,19.10
2018-09-23T07:01:42.390Z,19.20
2018-09-23T07:03:46.005Z,19.50
2018-09-23T07:05:49.528Z,19.70
2018-09-23T07:07:53.181Z,19.70
2018-09-23T07:09:56.837Z,20.10
2018-09-23T07:12:00.351Z,20.20
2018-09-23T07:14:03.918Z,20.40
2018-09-23T07:16:07.829Z,19.80
2018-09-23T07:18:11.392Z,19.80
2018-09-23T07:20:14.886Z,20.10
2018-09-23T07:22:18.384Z,20.40
2018-09-23T07:24:21.880Z,20.50
2018-09-23T07:26:25.513Z,20.00
2018-09-23T07:28:28.999Z,20.00
2018-09-23T07:30:32.852Z,19.70
2018-09-23T07:32:36.547Z,19.60
2018-09-23T07:34:40.063Z,19.30
2018-09-23T07:36:43.839Z,19.40
2018-09-23T07:38:47.347Z,19.70
2018-09-23T07:40:50.907Z,20.10
2018-09-23T07:42:54.507Z,20.40
2018-09-23T07:44:58.039Z,20.40
2018-09-23T07:47:01.645Z,20.50
2018-09-23T07:49:05.536Z,20.50
2018-09-23T07:51:09.096Z,20.40
2018-09-23T07:53:12.668Z,20.70
2018-09-23T07:55:16.140Z,20.70
2018-09-23T07:57:19.855Z,20.90
2018-09-23T07:59:23.374Z,20.90
2018-09-23T08:01:26.876Z,20.80
2018-09-23T08:03:30.414Z,21.10
2018-09-23T08:05:33.942Z,21.10
2018-09-23T08:07:37.846Z,21.20
2018-09-23T08:09:41.520Z,21.30
2018-09-23T08:11:45.029Z,21.20
2018-09-23T08:13:48.805Z,20.90
2018-09-23T08:15:52.135Z,21.00
2018-09-23T08:17:55.715Z,21.00
2018-09-23T08:19:59.410Z,20.60
2018-09-23T08:22:02.928Z,20.50
2018-09-23T08:24:06.536Z,20.30
2018-09-23T08:26:10.051Z,20.50
2018-09-23T08:28:13.714Z,20.10
2018-09-23T08:30:17.231Z,20.20
2018-09-23T08:32:20.759Z,20.40
2018-09-23T08:34:24.280Z,20.70
2018-09-23T08:38:43.691Z,20.40
2018-09-23T08:40:47.191Z,20.80
2018-09-23T08:42:50.808Z,20.80
2018-09-23T08:44:54.331Z,20.30
2018-09-23T08:46:57.839Z,20.30
2018-09-23T08:49:01.351Z,20.70
2018-09-23T08:51:05.032Z,20.30
2018-09-23T08:53:08.567Z,20.60
2018-09-23T08:55:12.107Z,21.00
2018-09-23T08:57:15.824Z,21.00
2018-09-23T08:59:19.289Z,21.20
2018-09-23T09:01:22.832Z,21.70
2018-09-23T09:03:26.351Z,22.10
2018-09-23T09:05:29.939Z,22.30
2018-09-23T09:07:33.510Z,22.20
2018-09-23T09:09:37.004Z,21.50
2018-09-23T09:11:40.595Z,21.90
2018-09-23T09:13:44.066Z,22.40
2018-09-23T09:15:47.554Z,22.80
2018-09-23T09:17:51.211Z,23.00
2018-09-23T09:19:54.825Z,22.50
2018-09-23T09:21:58.447Z,22.80
2018-09-23T09:24:02.021Z,22.90
2018-09-23T09:26:05.527Z,23.10
2018-09-23T09:28:09.117Z,23.40
2018-09-23T09:30:12.629Z,23.50
2018-09-23T09:32:16.185Z,23.80
2018-09-23T09:34:19.848Z,23.80
2018-09-23T09:36:23.351Z,23.70
2018-09-23T09:38:27.015Z,23.70
2018-09-23T09:40:30.474Z,23.50
2018-09-23T09:42:34.124Z,23.30
2018-09-23T09:44:37.747Z,23.30
2018-09-23T09:46:41.375Z,23.20
2018-09-23T09:48:44.858Z,23.20
2018-09-23T09:50:48.526Z,23.50
2018-09-23T09:52:52.037Z,23.80
2018-09-23T09:54:55.791Z,23.70
2018-09-23T09:56:59.425Z,23.80
2018-09-23T09:59:02.998Z,23.60
2018-09-23T10:01:06.861Z,23.60
2018-09-23T10:03:10.473Z,23.60
2018-09-23T10:05:14.191Z,23.60
2018-09-23T10:07:17.847Z,23.70
2018-09-23T10:09:21.473Z,23.60
2018-09-23T10:11:25.060Z,23.30
2018-09-23T10:13:28.754Z,23.20
2018-09-23T10:15:32.308Z,23.20
2018-09-23T10:17:35.996Z,23.50
2018-09-23T10:19:39.674Z,23.60
2018-09-23T10:21:43.170Z,23.30
2018-09-23T10:23:46.781Z,23.70
2018-09-23T10:25:50.252Z,23.90
2018-09-23T10:27:53.828Z,24.00
2018-09-23T10:29:57.425Z,23.90
2018-09-23T10:32:00.910Z,23.60
2018-09-23T10:34:04.436Z,23.50
2018-09-23T10:36:08.016Z,23.60
2018-09-23T10:38:11.520Z,23.20
2018-09-23T10:40:15.152Z,23.20
2018-09-23T10:42:18.769Z,23.00
2018-09-23T10:44:22.289Z,23.20
2018-09-23T10:46:25.968Z,23.30
2018-09-23T10:48:29.690Z,23.10
2018-09-23T10:50:33.511Z,22.90
2018-09-23T10:52:37.172Z,23.20
2018-09-23T10:54:40.728Z,23.40
2018-09-23T10:56:44.243Z,23.70
2018-09-23T10:58:47.975Z,24.00
2018-09-23T11:00:51.561Z,24.00
2018-09-23T11:02:55.203Z,23.20
2018-09-23T11:04:58.859Z,23.00
2018-09-23T11:07:02.418Z,23.20
2018-09-23T11:09:06.943Z,23.30
2018-09-23T11:11:10.452Z,23.30
2018-09-23T11:13:13.968Z,23.30
2018-09-23T11:15:17.626Z,23.10
2018-09-23T11:17:21.208Z,23.10
2018-09-23T11:19:24.712Z,23.10
2018-09-23T11:21:28.233Z,23.10
2018-09-23T11:23:32.007Z,23.30
2018-09-23T11:25:35.554Z,23.40
2018-09-23T11:27:39.421Z,23.00
2018-09-23T11:29:42.988Z,23.40
2018-09-23T11:31:46.579Z,23.80
2018-09-23T11:33:50.156Z,23.10
2018-09-23T11:35:53.772Z,23.00
2018-09-23T11:37:57.318Z,23.40
2018-09-23T11:40:00.914Z,23.40
2018-09-23T11:42:04.364Z,23.20
2018-09-23T11:44:08.208Z,23.30
2018-09-23T11:46:11.801Z,23.50
2018-09-23T11:48:15.372Z,23.30
2018-09-23T11:50:18.871Z,23.30
2018-09-23T11:52:22.477Z,23.30
2018-09-23T11:54:26.112Z,23.60
2018-09-23T11:56:29.839Z,23.80
2018-09-23T11:58:33.395Z,23.40
2018-09-23T12:00:37.003Z,24.10
2018-09-23T12:02:40.765Z,24.10
2018-09-23T12:04:44.304Z,24.20
2018-09-23T12:06:47.919Z,24.10
2018-09-23T12:08:51.489Z,23.80
2018-09-23T12:10:55.122Z,23.90
2018-09-23T12:12:58.687Z,23.60
2018-09-23T12:15:02.247Z,23.90
2018-09-23T12:17:06.068Z,24.20
2018-09-23T12:19:09.598Z,23.90
2018-09-23T12:21:13.151Z,23.60
2018-09-23T12:23:16.671Z,23.60
2018-09-23T12:25:20.416Z,23.70
2018-09-23T12:27:24.013Z,24.10
2018-09-23T12:29:27.604Z,24.50
2018-09-23T12:31:31.226Z,24.80
2018-09-23T12:33:34.984Z,25.00
2018-09-23T12:35:38.532Z,24.70
2018-09-23T12:37:42.135Z,25.10
2018-09-23T12:39:46.031Z,25.30
2018-09-23T12:41:49.817Z,25.20
2018-09-23T12:43:53.353Z,24.70
2018-09-23T12:45:57.477Z,25.00
2018-09-23T12:48:01.113Z,25.20
2018-09-23T12:50:05.012Z,25.30
2018-09-23T12:52:08.546Z,25.50
2018-09-23T12:54:12.250Z,25.50
2018-09-23T12:56:15.760Z,25.00
2018-09-23T12:58:19.357Z,25.00
2018-09-23T13:00:22.904Z,24.80
2018-09-23T13:02:26.483Z,24.80
2018-09-23T13:04:30.000Z,24.80
2018-09-23T13:06:33.512Z,24.80
2018-09-23T13:08:37.015Z,24.80
2018-09-23T13:10:40.858Z,25.30
2018-09-23T13:12:44.464Z,25.40
2018-09-23T13:14:47.948Z,25.60
2018-09-23T13:16:51.526Z,25.50
2018-09-23T13:18:55.065Z,25.40
2018-09-23T13:20:58.634Z,25.30
2018-09-23T13:23:02.151Z,25.50
2018-09-23T13:25:05.717Z,25.60
2018-09-23T13:27:09.284Z,25.60
2018-09-23T13:29:12.804Z,24.40
2018-09-23T13:31:16.547Z,25.80
2018-09-23T13:33:20.078Z,25.60
2018-09-23T13:35:23.730Z,25.70
2018-09-23T13:37:27.384Z,25.90
2018-09-23T13:39:31.163Z,25.60
2018-09-23T13:41:34.747Z,25.30
2018-09-23T13:43:38.519Z,25.10
2018-09-23T13:45:42.053Z,25.20
2018-09-23T13:47:45.576Z,25.00
2018-09-23T13:49:49.151Z,25.60
2018-09-23T13:51:52.716Z,25.30
2018-09-23T13:53:56.510Z,24.80
2018-09-23T13:56:00.138Z,24.40
2018-09-23T13:58:03.759Z,24.60
2018-09-23T14:00:07.547Z,24.80
2018-09-23T14:02:11.079Z,24.60
2018-09-23T14:04:14.703Z,25.00
2018-09-23T14:06:18.364Z,24.00
2018-09-23T14:08:21.947Z,24.80
2018-09-23T14:10:25.394Z,24.70
2018-09-23T14:12:28.966Z,24.70
2018-09-23T14:14:32.604Z,24.60
2018-09-23T14:16:36.123Z,24.60
2018-09-23T14:18:39.683Z,24.50
2018-09-23T14:20:43.248Z,24.80
2018-09-23T14:22:46.772Z,24.50
2018-09-23T14:24:50.328Z,24.40
2018-09-23T14:26:53.848Z,24.60
2018-09-23T14:28:57.395Z,24.40
2018-09-23T14:31:00.972Z,24.50
2018-09-23T14:33:04.513Z,24.60
2018-09-23T14:35:08.127Z,24.80
2018-09-23T14:37:11.659Z,24.70
2018-09-23T14:39:15.334Z,24.30
2018-09-23T14:41:18.847Z,24.30
2018-09-23T14:43:22.343Z,24.40
2018-09-23T14:45:26.039Z,24.60
2018-09-23T14:47:29.537Z,24.40
2018-09-23T14:49:33.081Z,24.60
2018-09-23T14:51:36.632Z,24.50
2018-09-23T14:53:40.198Z,24.60
2018-09-23T14:55:43.756Z,24.70
2018-09-23T14:57:47.444Z,24.90
2018-09-23T14:59:54.364Z,25.00
2018-09-23T15:01:54.728Z,25.10
2018-09-23T15:03:58.487Z,24.70
2018-09-23T15:06:02.135Z,24.90
2018-09-23T15:08:06.056Z,25.10
2018-09-23T15:10:09.556Z,24.70
2018-09-23T15:12:13.151Z,24.80
2018-09-23T15:14:16.752Z,24.60
2018-09-23T15:16:20.313Z,24.60
2018-09-23T15:18:23.992Z,24.40
2018-09-23T15:20:27.556Z,24.60
2018-09-23T15:22:31.063Z,24.80
2018-09-23T15:24:34.567Z,24.80
2018-09-23T15:26:38.085Z,24.80
2018-09-23T15:28:41.608Z,24.80
2018-09-23T15:30:45.342Z,24.90
2018-09-23T15:32:49.073Z,24.90
2018-09-23T15:34:52.788Z,24.70
2018-09-23T15:36:56.291Z,24.60
2018-09-23T15:38:59.837Z,24.60
2018-09-23T15:41:03.356Z,24.80
2018-09-23T15:43:07.192Z,24.40
2018-09-23T15:45:10.789Z,24.50
2018-09-23T15:47:14.378Z,24.40
2018-09-23T15:49:18.231Z,24.20
2018-09-23T15:51:21.771Z,24.40
2018-09-23T15:53:25.432Z,24.50
2018-09-23T15:55:29.089Z,24.50
2018-09-23T15:57:32.612Z,24.30
2018-09-23T15:59:36.171Z,25.30
2018-09-23T16:01:39.665Z,24.80
2018-09-23T16:03:43.259Z,24.60
2018-09-23T16:05:46.818Z,24.20
2018-09-23T16:07:50.491Z,24.20
2018-09-23T16:09:53.956Z,24.60
2018-09-23T16:11:57.467Z,24.70
2018-09-23T16:14:00.937Z,24.70
2018-09-23T16:16:04.480Z,24.80
2018-09-23T16:18:08.017Z,24.60
2018-09-23T16:20:11.801Z,24.40
2018-09-23T16:22:15.404Z,24.70
2018-09-23T16:24:21.933Z,24.50
2018-09-23T16:26:25.501Z,24.70
2018-09-23T16:28:29.200Z,24.50
2018-09-23T16:30:32.748Z,24.40
2018-09-23T16:32:36.275Z,24.00
2018-09-23T16:34:39.859Z,24.10
2018-09-23T16:36:43.383Z,24.50
2018-09-23T16:38:46.979Z,24.50
2018-09-23T16:40:50.502Z,24.60
2018-09-23T16:42:54.167Z,24.50
2018-09-23T16:44:57.749Z,24.40
2018-09-23T16:47:01.323Z,24.20
2018-09-23T16:49:04.872Z,24.30
2018-09-23T16:51:08.485Z,24.40
2018-09-23T16:53:12.049Z,24.20
2018-09-23T16:55:15.784Z,24.10
2018-09-23T16:57:19.367Z,24.00
2018-09-23T16:59:22.868Z,24.00
2018-09-23T17:01:26.521Z,24.10
2018-09-23T17:03:30.045Z,24.10
2018-09-23T17:05:33.587Z,23.90
2018-09-23T17:07:37.140Z,24.00
2018-09-23T17:09:40.776Z,24.30
2018-09-23T17:11:44.438Z,24.30
2018-09-23T17:13:47.995Z,24.40
2018-09-23T17:15:51.641Z,24.10
2018-09-23T17:17:55.380Z,23.90
2018-09-23T17:19:58.877Z,23.90
2018-09-23T17:22:02.441Z,23.80
2018-09-23T17:24:06.104Z,23.80
2018-09-23T17:26:09.652Z,24.10
2018-09-23T17:28:13.234Z,22.80
2018-09-23T17:30:16.774Z,21.90
2018-09-23T17:32:20.239Z,21.30
2018-09-23T17:34:23.988Z,20.80
2018-09-23T17:36:27.504Z,19.80
2018-09-23T17:38:31.202Z,18.80
2018-09-23T17:40:34.922Z,17.80
2018-09-23T17:42:38.522Z,17.50
2018-09-23T17:44:42.267Z,17.40
2018-09-23T17:46:45.826Z,17.30
2018-09-23T17:48:49.447Z,17.20
2018-09-23T17:50:53.010Z,17.10
2018-09-23T17:52:56.739Z,17.00
2018-09-23T17:55:00.543Z,16.90
2018-09-23T17:57:04.157Z,17.30
2018-09-23T17:59:07.726Z,17.80
2018-09-23T18:01:11.468Z,17.70
2018-09-23T18:03:15.066Z,17.50
2018-09-23T18:05:18.599Z,17.20
2018-09-23T18:07:22.213Z,16.90
2018-09-23T18:09:25.757Z,16.80
2018-09-23T18:11:29.482Z,16.30
2018-09-23T18:13:33.010Z,16.30
2018-09-23T18:15:36.712Z,16.30
2018-09-23T18:17:40.288Z,16.30
2018-09-23T18:19:43.849Z,16.30
2018-09-23T18:21:47.599Z,16.30
2018-09-23T18:23:51.119Z,16.40
2018-09-23T18:25:54.778Z,16.40
2018-09-23T18:27:58.329Z,16.50
2018-09-23T18:30:01.912Z,16.30
2018-09-23T18:32:05.601Z,16.50
2018-09-23T18:34:09.229Z,16.40
2018-09-23T18:36:12.804Z,16.40
2018-09-23T18:38:16.558Z,16.20
2018-09-23T18:40:20.863Z,16.30
2018-09-23T18:42:24.563Z,16.20
2018-09-23T18:44:28.272Z,17.10
2018-09-23T18:46:31.923Z,16.40
2018-09-23T18:48:35.518Z,16.20
2018-09-23T18:50:39.236Z,16.10
2018-09-23T18:52:42.953Z,16.10
2018-09-23T18:54:51.921Z,14.00
2018-09-23T18:56:55.589Z,16.40
2018-09-23T18:58:59.210Z,16.30
2018-09-23T19:01:02.807Z,16.10
2018-09-23T19:03:06.554Z,16.30
2018-09-23T19:05:10.125Z,16.10
2018-09-23T19:07:13.869Z,16.30
2018-09-23T19:09:17.434Z,16.40
2018-09-23T19:11:21.204Z,16.10
2018-09-23T19:13:30.019Z,16.10
2018-09-23T19:15:34.157Z,16.10
2018-09-23T19:17:37.742Z,16.30
2018-09-23T19:19:46.510Z,15.90
2018-09-23T19:21:50.181Z,15.50
2018-09-23T19:23:53.895Z,15.60
2018-09-23T19:25:57.553Z,15.60
2018-09-23T19:28:03.964Z,15.20
2018-09-23T19:30:07.816Z,15.30
2018-09-23T19:32:11.390Z,15.30
2018-09-23T19:34:15.086Z,15.30
2018-09-23T19:36:18.600Z,14.90
2018-09-23T19:38:22.092Z,14.50
2018-09-23T19:40:25.781Z,14.40
2018-09-23T19:42:29.592Z,14.30
2018-09-23T19:44:33.104Z,14.10
2018-09-23T19:46:36.742Z,14.10
2018-09-23T19:48:40.388Z,14.00
2018-09-23T19:50:43.912Z,14.00
2018-09-23T19:52:47.741Z,14.40
2018-09-23T19:54:51.279Z,14.60
2018-09-23T19:56:54.912Z,14.20
2018-09-23T19:58:58.504Z,14.50
2018-09-23T20:01:02.247Z,15.00
2018-09-23T20:03:05.961Z,14.60
2018-09-23T20:05:09.492Z,14.50
2018-09-23T20:07:13.021Z,14.30
2018-09-23T20:09:16.807Z,14.30
2018-09-23T20:11:20.385Z,13.60
2018-09-23T20:13:23.998Z,13.40
2018-09-23T20:15:27.677Z,13.70
2018-09-23T20:17:31.181Z,13.50
2018-09-23T20:19:34.772Z,13.30
2018-09-23T20:21:38.288Z,13.90
2018-09-23T20:23:41.864Z,13.80
2018-09-23T20:25:45.430Z,14.00
2018-09-23T20:27:48.914Z,14.50
2018-09-23T20:29:52.467Z,14.00
2018-09-23T20:31:56.027Z,13.90
2018-09-23T20:33:59.552Z,13.90
2018-09-23T20:36:03.381Z,13.70
2018-09-23T20:38:06.884Z,13.80
2018-09-23T20:40:10.444Z,13.70
2018-09-23T20:42:14.062Z,13.50
2018-09-23T20:44:17.609Z,13.80
2018-09-23T20:46:21.358Z,14.00
2018-09-23T20:48:24.892Z,14.20
2018-09-23T20:50:28.666Z,14.10
2018-09-23T20:52:32.243Z,14.20
2018-09-23T20:54:35.922Z,14.00
2018-09-23T20:56:39.567Z,13.40
2018-09-23T20:58:43.147Z,13.50
2018-09-23T21:00:46.660Z,13.80
2018-09-23T21:02:50.304Z,14.00
2018-09-23T21:04:53.880Z,13.40
2018-09-23T21:06:57.425Z,13.50
2018-09-23T21:09:00.961Z,13.40
2018-09-23T21:11:04.545Z,13.50
2018-09-23T21:13:08.104Z,12.80
2018-09-23T21:15:11.691Z,12.90
2018-09-23T21:17:15.200Z,12.90
2018-09-23T21:19:18.712Z,12.00
2018-09-23T21:21:22.228Z,12.20
2018-09-23T21:23:25.808Z,12.30
2018-09-23T21:25:29.345Z,12.10
2018-09-23T21:27:32.910Z,11.70
2018-09-23T21:29:36.397Z,12.20
2018-09-23T21:31:39.928Z,12.30
2018-09-23T21:33:43.503Z,12.30
2018-09-23T21:35:47.268Z,11.60
2018-09-23T21:37:50.799Z,11.50
2018-09-23T21:39:54.415Z,12.00
2018-09-23T21:41:57.936Z,12.00
2018-09-23T21:44:01.477Z,12.50
2018-09-23T21:46:05.036Z,11.50
2018-09-23T21:48:08.636Z,11.30
2018-09-23T21:50:12.224Z,11.30
2018-09-23T21:52:15.883Z,12.20
2018-09-23T21:54:19.482Z,11.30
2018-09-23T21:56:23.020Z,11.90
2018-09-23T21:58:26.540Z,12.20
2018-09-23T22:00:35.449Z,11.60
2018-09-23T22:02:39.499Z,11.70
2018-09-23T22:04:43.069Z,12.30
2018-09-23T22:06:46.896Z,12.30
2018-09-23T22:08:50.462Z,11.80
2018-09-23T22:10:54.016Z,11.70
2018-09-23T22:12:57.626Z,11.90
2018-09-23T22:15:01.176Z,12.20
2018-09-23T22:17:04.745Z,12.60
2018-09-23T22:19:08.255Z,13.10
2018-09-23T22:21:11.897Z,13.40
2018-09-23T22:23:15.372Z,13.70
2018-09-23T22:25:18.916Z,14.20
2018-09-23T22:27:22.594Z,13.40
2018-09-23T22:29:26.084Z,13.80
2018-09-23T22:31:29.628Z,14.20
2018-09-23T22:33:33.135Z,13.70
2018-09-23T22:35:36.813Z,14.30
2018-09-23T22:37:40.908Z,13.60
2018-09-23T22:39:44.463Z,13.80
2018-09-23T22:41:48.032Z,13.50
2018-09-23T22:43:51.540Z,13.70
2018-09-23T22:45:55.087Z,14.30
2018-09-23T22:47:58.647Z,14.60
2018-09-23T22:50:02.527Z,14.80
2018-09-23T22:52:06.072Z,14.60
2018-09-23T22:54:09.598Z,15.00
2018-09-23T22:56:13.120Z,15.30
2018-09-23T22:58:16.699Z,15.10
2018-09-23T23:00:20.273Z,14.40
2018-09-23T23:02:23.816Z,14.40
2018-09-23T23:04:27.381Z,14.50
2018-09-23T23:06:30.876Z,14.50
2018-09-23T23:08:34.475Z,13.90
2018-09-23T23:10:37.955Z,12.90
2018-09-23T23:12:41.489Z,12.20
2018-09-23T23:14:44.996Z,12.60
2018-09-23T23:16:48.571Z,12.90
2018-09-23T23:18:52.052Z,11.80
2018-09-23T23:20:55.735Z,11.50
2018-09-23T23:22:59.222Z,12.40
2018-09-23T23:25:02.757Z,13.20
2018-09-23T23:27:06.584Z,13.50
2018-09-23T23:29:10.223Z,13.70
2018-09-23T23:31:13.704Z,12.90
2018-09-23T23:33:17.288Z,12.70
2018-09-23T23:35:20.737Z,12.70
2018-09-23T23:37:24.235Z,13.00
2018-09-23T23:39:27.731Z,13.70
2018-09-23T23:41:31.261Z,13.20
2018-09-23T23:43:34.932Z,13.30
2018-09-23T23:45:38.572Z,13.20
2018-09-23T23:47:42.225Z,13.30
2018-09-23T23:49:45.789Z,13.30
2018-09-23T23:51:49.596Z,13.20
2018-09-23T23:53:53.240Z,12.60
2018-09-23T23:55:56.804Z,12.60
2018-09-23T23:58:00.299Z,12.80
